sensor_id;sensor_type;location;lat;lon;timestamp;pressure;altitude;pressure_sealevel;temperature;humidity
78590;BME280;67888;50.228;7.828;2023-03-01T00:04:56;100247.44;;;-3.70;76.67
78590;BME280;67888;50.228;7.828;2023-03-01T00:09:57;100248.41;;;-3.71;76.19
78590;BME280;67888;50.228;7.828;2023-03-01T00:14:57;100252.75;;;-3.72;76.20
78590;BME280;67888;50.228;7.828;2023-03-01T00:19:57;100253.84;;;-3.74;76.79
78590;BME280;67888;50.228;7.828;2023-03-01T00:24:58;100242.50;;;-3.64;76.37
78590;BME280;67888;50.228;7.828;2023-03-01T00:29:58;100244.25;;;-3.64;76.05
78590;BME280;67888;50.228;7.828;2023-03-01T00:34:59;100250.94;;;-3.53;75.91
78590;BME280;67888;50.228;7.828;2023-03-01T00:39:59;100235.97;;;-3.58;75.92
78590;BME280;67888;50.228;7.828;2023-03-01T00:45:00;100231.00;;;-3.34;75.79
78590;BME280;67888;50.228;7.828;2023-03-01T00:50:00;100217.50;;;-3.28;75.15
78590;BME280;67888;50.228;7.828;2023-03-01T00:55:00;100212.47;;;-3.37;75.27
78590;BME280;67888;50.228;7.828;2023-03-01T01:00:01;100218.78;;;-3.32;75.48
78590;BME280;67888;50.228;7.828;2023-03-01T01:05:01;100212.69;;;-3.31;75.31
78590;BME280;67888;50.228;7.828;2023-03-01T01:10:02;100200.41;;;-3.37;75.94
78590;BME280;67888;50.228;7.828;2023-03-01T01:15:03;100200.22;;;-3.17;75.31
78590;BME280;67888;50.228;7.828;2023-03-01T01:20:04;100190.09;;;-3.11;75.48
78590;BME280;67888;50.228;7.828;2023-03-01T01:25:05;100183.97;;;-3.18;75.40
78590;BME280;67888;50.228;7.828;2023-03-01T01:30:07;100197.22;;;-3.05;76.16
78590;BME280;67888;50.228;7.828;2023-03-01T01:35:09;100184.91;;;-3.19;76.22
78590;BME280;67888;50.228;7.828;2023-03-01T01:40:10;100182.09;;;-3.00;75.69
78590;BME280;67888;50.228;7.828;2023-03-01T01:45:31;100178.75;;;-2.92;74.84
78590;BME280;67888;50.228;7.828;2023-03-01T01:50:33;100179.00;;;-3.11;75.16
78590;BME280;67888;50.228;7.828;2023-03-01T01:55:47;100172.22;;;-3.12;75.78
78590;BME280;67888;50.228;7.828;2023-03-01T02:00:49;100170.00;;;-3.07;75.58
78590;BME280;67888;50.228;7.828;2023-03-01T02:05:50;100167.22;;;-3.14;75.79
78590;BME280;67888;50.228;7.828;2023-03-01T02:10:53;100173.16;;;-3.21;75.73
78590;BME280;67888;50.228;7.828;2023-03-01T02:15:54;100167.06;;;-3.12;74.80
78590;BME280;67888;50.228;7.828;2023-03-01T02:26:48;100177.72;;;-3.07;74.88
78590;BME280;67888;50.228;7.828;2023-03-01T02:31:51;100171.03;;;-2.92;74.38
78590;BME280;67888;50.228;7.828;2023-03-01T02:36:56;100160.91;;;-2.85;74.20
78590;BME280;67888;50.228;7.828;2023-03-01T02:41:57;100154.34;;;-2.80;73.67
78590;BME280;67888;50.228;7.828;2023-03-01T02:47:01;100149.69;;;-2.68;73.13
78590;BME280;67888;50.228;7.828;2023-03-01T02:57:31;100126.69;;;-2.70;72.61
78590;BME280;67888;50.228;7.828;2023-03-01T03:02:34;100124.06;;;-2.78;73.94
78590;BME280;67888;50.228;7.828;2023-03-01T03:07:40;100120.81;;;-2.96;73.86
78590;BME280;67888;50.228;7.828;2023-03-01T03:12:42;100110.22;;;-2.77;73.25
78590;BME280;67888;50.228;7.828;2023-03-01T03:17:42;100098.16;;;-2.84;73.36
78590;BME280;67888;50.228;7.828;2023-03-01T03:22:43;100101.38;;;-2.74;73.29
78590;BME280;67888;50.228;7.828;2023-03-01T03:27:46;100106.06;;;-2.70;73.17
78590;BME280;67888;50.228;7.828;2023-03-01T03:32:47;100112.50;;;-2.66;72.79
78590;BME280;67888;50.228;7.828;2023-03-01T03:37:52;100093.19;;;-2.62;72.81
78590;BME280;67888;50.228;7.828;2023-03-01T03:43:03;100080.00;;;-2.67;73.18
78590;BME280;67888;50.228;7.828;2023-03-01T03:48:06;100077.25;;;-2.65;73.11
78590;BME280;67888;50.228;7.828;2023-03-01T03:53:10;100070.81;;;-2.69;73.03
78590;BME280;67888;50.228;7.828;2023-03-01T03:58:11;100058.72;;;-2.77;73.68
78590;BME280;67888;50.228;7.828;2023-03-01T04:03:13;100054.53;;;-2.78;73.66
78590;BME280;67888;50.228;7.828;2023-03-01T04:08:14;100057.25;;;-2.88;73.36
78590;BME280;67888;50.228;7.828;2023-03-01T04:13:18;100067.25;;;-2.84;73.29
78590;BME280;67888;50.228;7.828;2023-03-01T04:18:22;100071.44;;;-2.92;73.60
78590;BME280;67888;50.228;7.828;2023-03-01T04:23:23;100067.25;;;-2.93;73.37
78590;BME280;67888;50.228;7.828;2023-03-01T04:28:32;100061.91;;;-2.99;73.83
78590;BME280;67888;50.228;7.828;2023-03-01T04:33:34;100065.28;;;-2.99;73.29
78590;BME280;67888;50.228;7.828;2023-03-01T04:38:38;100067.06;;;-2.99;74.33
78590;BME280;67888;50.228;7.828;2023-03-01T04:43:39;100081.19;;;-3.11;74.07
78590;BME280;67888;50.228;7.828;2023-03-01T04:48:41;100072.97;;;-3.15;74.21
78590;BME280;67888;50.228;7.828;2023-03-01T04:53:42;100077.97;;;-3.13;74.19
78590;BME280;67888;50.228;7.828;2023-03-01T04:58:43;100081.31;;;-3.21;74.66
78590;BME280;67888;50.228;7.828;2023-03-01T05:03:46;100079.88;;;-3.23;74.49
78590;BME280;67888;50.228;7.828;2023-03-01T05:08:47;100080.75;;;-3.41;75.71
78590;BME280;67888;50.228;7.828;2023-03-01T05:13:47;100062.22;;;-3.10;74.38
78590;BME280;67888;50.228;7.828;2023-03-01T05:18:50;100065.38;;;-3.33;75.01
78590;BME280;67888;50.228;7.828;2023-03-01T05:23:50;100068.94;;;-3.59;75.84
78590;BME280;67888;50.228;7.828;2023-03-01T05:28:51;100071.53;;;-3.59;76.47
78590;BME280;67888;50.228;7.828;2023-03-01T05:33:51;100066.22;;;-3.58;75.88
78590;BME280;67888;50.228;7.828;2023-03-01T05:38:52;100058.50;;;-3.58;75.87
78590;BME280;67888;50.228;7.828;2023-03-01T05:43:53;100065.28;;;-3.57;75.86
78590;BME280;67888;50.228;7.828;2023-03-01T05:48:53;100055.81;;;-3.48;75.68
78590;BME280;67888;50.228;7.828;2023-03-01T05:53:54;100057.19;;;-3.62;75.92
78590;BME280;67888;50.228;7.828;2023-03-01T05:58:54;100051.28;;;-3.54;75.77
78590;BME280;67888;50.228;7.828;2023-03-01T06:03:55;100054.91;;;-3.73;75.37
78590;BME280;67888;50.228;7.828;2023-03-01T06:08:56;100052.59;;;-3.84;74.92
78590;BME280;67888;50.228;7.828;2023-03-01T06:13:57;100063.53;;;-3.82;76.25
78590;BME280;67888;50.228;7.828;2023-03-01T06:18:57;100060.91;;;-3.90;75.66
78590;BME280;67888;50.228;7.828;2023-03-01T06:23:57;100056.22;;;-3.95;76.08
78590;BME280;67888;50.228;7.828;2023-03-01T06:28:58;100052.72;;;-3.94;76.75
78590;BME280;67888;50.228;7.828;2023-03-01T06:33:58;100052.09;;;-3.88;75.98
78590;BME280;67888;50.228;7.828;2023-03-01T06:38:59;100054.16;;;-3.91;76.37
78590;BME280;67888;50.228;7.828;2023-03-01T06:43:59;100044.53;;;-3.89;76.16
78590;BME280;67888;50.228;7.828;2023-03-01T06:49:00;100049.53;;;-3.80;76.56
78590;BME280;67888;50.228;7.828;2023-03-01T06:54:00;100054.53;;;-3.78;76.42
78590;BME280;67888;50.228;7.828;2023-03-01T06:59:01;100050.13;;;-3.60;76.01
78590;BME280;67888;50.228;7.828;2023-03-01T07:04:02;100048.00;;;-3.31;74.67
78590;BME280;67888;50.228;7.828;2023-03-01T07:09:03;100046.16;;;-3.04;74.22
78590;BME280;67888;50.228;7.828;2023-03-01T07:14:03;100051.97;;;-2.78;73.35
78590;BME280;67888;50.228;7.828;2023-03-01T07:19:05;100056.50;;;-2.56;72.53
78590;BME280;67888;50.228;7.828;2023-03-01T07:24:07;100051.19;;;-2.30;71.99
78590;BME280;67888;50.228;7.828;2023-03-01T07:29:09;100044.72;;;-2.09;71.42
78590;BME280;67888;50.228;7.828;2023-03-01T07:34:10;100039.69;;;-1.95;71.27
78590;BME280;67888;50.228;7.828;2023-03-01T07:39:11;100032.53;;;-1.68;70.86
78590;BME280;67888;50.228;7.828;2023-03-01T07:44:12;100037.28;;;-1.49;70.33
78590;BME280;67888;50.228;7.828;2023-03-01T07:49:12;100034.50;;;-1.39;69.23
78590;BME280;67888;50.228;7.828;2023-03-01T07:54:12;100028.81;;;-1.27;69.28
78590;BME280;67888;50.228;7.828;2023-03-01T07:59:13;100022.09;;;-1.13;68.40
78590;BME280;67888;50.228;7.828;2023-03-01T08:04:13;100028.13;;;-0.98;67.87
78590;BME280;67888;50.228;7.828;2023-03-01T08:09:14;100009.38;;;-0.92;67.64
78590;BME280;67888;50.228;7.828;2023-03-01T08:14:14;100019.69;;;-0.69;67.15
78590;BME280;67888;50.228;7.828;2023-03-01T08:19:14;100013.66;;;-0.61;66.72
78590;BME280;67888;50.228;7.828;2023-03-01T08:24:15;100012.94;;;-0.32;66.86
78590;BME280;67888;50.228;7.828;2023-03-01T08:29:15;100015.72;;;-0.05;65.59
78590;BME280;67888;50.228;7.828;2023-03-01T08:34:17;100021.28;;;0.22;64.80
78590;BME280;67888;50.228;7.828;2023-03-01T08:39:20;100008.84;;;0.47;63.40
78590;BME280;67888;50.228;7.828;2023-03-01T08:44:20;100008.69;;;0.69;62.07
78590;BME280;67888;50.228;7.828;2023-03-01T08:49:21;100000.16;;;0.54;62.20
78590;BME280;67888;50.228;7.828;2023-03-01T08:54:22;99990.31;;;0.64;62.17
78590;BME280;67888;50.228;7.828;2023-03-01T08:59:22;99995.22;;;0.74;61.94
78590;BME280;67888;50.228;7.828;2023-03-01T09:04:23;99989.44;;;0.57;61.77
78590;BME280;67888;50.228;7.828;2023-03-01T09:09:23;99992.38;;;0.69;61.83
78590;BME280;67888;50.228;7.828;2023-03-01T09:14:23;99976.94;;;0.61;61.25
78590;BME280;67888;50.228;7.828;2023-03-01T09:19:24;99976.34;;;0.80;61.67
78590;BME280;67888;50.228;7.828;2023-03-01T09:24:25;99974.63;;;0.87;61.87
78590;BME280;67888;50.228;7.828;2023-03-01T09:29:25;99979.81;;;0.87;61.98
78590;BME280;67888;50.228;7.828;2023-03-01T09:34:26;99975.63;;;1.07;60.79
78590;BME280;67888;50.228;7.828;2023-03-01T09:39:26;99974.75;;;1.00;60.99
78590;BME280;67888;50.228;7.828;2023-03-01T09:44:38;99980.97;;;1.27;60.29
78590;BME280;67888;50.228;7.828;2023-03-01T09:49:41;99976.56;;;1.28;61.07
78590;BME280;67888;50.228;7.828;2023-03-01T09:54:54;99975.94;;;1.47;60.56
78590;BME280;67888;50.228;7.828;2023-03-01T10:05:09;99974.63;;;1.92;59.15
78590;BME280;67888;50.228;7.828;2023-03-01T10:10:28;99960.78;;;2.13;58.39
78590;BME280;67888;50.228;7.828;2023-03-01T10:15:43;99954.06;;;2.25;56.67
78590;BME280;67888;50.228;7.828;2023-03-01T10:20:53;99933.75;;;2.48;56.65
78590;BME280;67888;50.228;7.828;2023-03-01T10:31:39;99926.25;;;2.86;55.32
78590;BME280;67888;50.228;7.828;2023-03-01T10:36:42;99921.03;;;3.06;54.91
78590;BME280;67888;50.228;7.828;2023-03-01T10:41:54;99912.47;;;3.12;56.05
78590;BME280;67888;50.228;7.828;2023-03-01T10:47:00;99919.06;;;3.15;55.85
78590;BME280;67888;50.228;7.828;2023-03-01T10:52:17;99909.44;;;3.35;55.76
78590;BME280;67888;50.228;7.828;2023-03-01T10:57:37;99907.81;;;3.54;53.81
78590;BME280;67888;50.228;7.828;2023-03-01T11:02:38;99893.38;;;3.65;53.48
78590;BME280;67888;50.228;7.828;2023-03-01T11:07:53;99888.91;;;3.85;53.12
78590;BME280;67888;50.228;7.828;2023-03-01T11:18:21;99879.44;;;4.04;53.21
78590;BME280;67888;50.228;7.828;2023-03-01T11:23:22;99879.81;;;4.45;53.37
78590;BME280;67888;50.228;7.828;2023-03-01T11:28:25;99888.75;;;4.24;51.62
78590;BME280;67888;50.228;7.828;2023-03-01T11:33:44;99880.66;;;4.39;53.48
78590;BME280;67888;50.228;7.828;2023-03-01T11:38:48;99868.22;;;4.41;51.02
78590;BME280;67888;50.228;7.828;2023-03-01T11:49:35;99856.63;;;4.68;50.58
78590;BME280;67888;50.228;7.828;2023-03-01T12:16:17;99825.03;;;5.63;48.73
78590;BME280;67888;50.228;7.828;2023-03-01T12:21:49;99815.13;;;5.53;48.74
78590;BME280;67888;50.228;7.828;2023-03-01T12:37:41;99787.09;;;6.38;47.66
78590;BME280;67888;50.228;7.828;2023-03-01T12:43:08;99772.94;;;6.58;46.04
78590;BME280;67888;50.228;7.828;2023-03-01T12:53:55;99760.19;;;7.08;44.14
78590;BME280;67888;50.228;7.828;2023-03-01T13:14:47;99747.41;;;7.63;41.66
78590;BME280;67888;50.228;7.828;2023-03-01T13:19:57;99738.56;;;8.09;40.12
78590;BME280;67888;50.228;7.828;2023-03-01T13:25:13;99731.44;;;8.55;40.43
78590;BME280;67888;50.228;7.828;2023-03-01T13:35:46;99725.72;;;15.66;25.79
78590;BME280;67888;50.228;7.828;2023-03-01T13:45:49;99731.53;;;17.75;22.98
78590;BME280;67888;50.228;7.828;2023-03-01T13:50:58;99724.41;;;17.34;22.94
78590;BME280;67888;50.228;7.828;2023-03-01T13:56:07;99711.53;;;19.23;22.34
78590;BME280;67888;50.228;7.828;2023-03-01T14:06:29;99715.22;;;19.71;20.68
78590;BME280;67888;50.228;7.828;2023-03-01T14:27:04;99703.72;;;20.04;18.96
78590;BME280;67888;50.228;7.828;2023-03-01T14:32:18;99694.91;;;21.06;18.62
78590;BME280;67888;50.228;7.828;2023-03-01T14:37:31;99693.78;;;20.78;19.15
78590;BME280;67888;50.228;7.828;2023-03-01T14:42:35;99688.34;;;20.65;18.87
78590;BME280;67888;50.228;7.828;2023-03-01T14:47:36;99694.56;;;20.40;18.13
78590;BME280;67888;50.228;7.828;2023-03-01T14:52:40;99691.09;;;22.32;16.80
78590;BME280;67888;50.228;7.828;2023-03-01T14:57:43;99673.06;;;20.66;18.71
78590;BME280;67888;50.228;7.828;2023-03-01T15:02:46;99662.69;;;21.53;18.16
78590;BME280;67888;50.228;7.828;2023-03-01T15:07:48;99645.91;;;19.40;19.35
78590;BME280;67888;50.228;7.828;2023-03-01T15:12:49;99650.56;;;20.37;18.61
78590;BME280;67888;50.228;7.828;2023-03-01T15:17:54;99642.72;;;21.00;18.25
78590;BME280;67888;50.228;7.828;2023-03-01T15:22:56;99641.75;;;20.75;18.76
78590;BME280;67888;50.228;7.828;2023-03-01T15:27:58;99639.84;;;20.29;18.66
78590;BME280;67888;50.228;7.828;2023-03-01T15:33:17;99641.44;;;18.44;20.79
78590;BME280;67888;50.228;7.828;2023-03-01T15:43:45;99627.91;;;14.55;25.17
78590;BME280;67888;50.228;7.828;2023-03-01T15:48:53;99629.06;;;12.98;27.01
78590;BME280;67888;50.228;7.828;2023-03-01T15:53:58;99621.94;;;11.89;29.67
78590;BME280;67888;50.228;7.828;2023-03-01T15:59:01;99623.13;;;11.20;30.85
78590;BME280;67888;50.228;7.828;2023-03-01T16:04:02;99631.63;;;9.91;33.45
78590;BME280;67888;50.228;7.828;2023-03-01T16:09:02;99618.44;;;10.60;31.11
78590;BME280;67888;50.228;7.828;2023-03-01T16:14:03;99623.66;;;10.55;31.41
78590;BME280;67888;50.228;7.828;2023-03-01T16:19:04;99625.44;;;9.43;34.55
78590;BME280;67888;50.228;7.828;2023-03-01T16:24:05;99635.84;;;9.60;33.91
78590;BME280;67888;50.228;7.828;2023-03-01T16:29:06;99632.81;;;9.46;33.80
78590;BME280;67888;50.228;7.828;2023-03-01T16:34:06;99642.28;;;8.38;35.73
78590;BME280;67888;50.228;7.828;2023-03-01T16:39:08;99636.81;;;8.40;35.99
78590;BME280;67888;50.228;7.828;2023-03-01T16:44:09;99641.84;;;7.63;37.34
78590;BME280;67888;50.228;7.828;2023-03-01T16:49:09;99637.28;;;7.13;38.78
78590;BME280;67888;50.228;7.828;2023-03-01T16:54:10;99640.34;;;6.81;39.04
78590;BME280;67888;50.228;7.828;2023-03-01T16:59:11;99634.13;;;6.24;40.11
78590;BME280;67888;50.228;7.828;2023-03-01T17:04:12;99642.63;;;5.96;40.81
78590;BME280;67888;50.228;7.828;2023-03-01T17:09:12;99642.06;;;5.53;41.76
78590;BME280;67888;50.228;7.828;2023-03-01T17:14:12;99648.50;;;5.20;42.58
78590;BME280;67888;50.228;7.828;2023-03-01T17:19:13;99643.97;;;4.97;43.05
78590;BME280;67888;50.228;7.828;2023-03-01T17:24:17;99649.00;;;4.81;43.05
78590;BME280;67888;50.228;7.828;2023-03-01T17:29:18;99646.03;;;4.34;45.78
78590;BME280;67888;50.228;7.828;2023-03-01T17:34:18;99660.94;;;4.27;44.71
78590;BME280;67888;50.228;7.828;2023-03-01T17:39:20;99662.75;;;4.02;45.91
78590;BME280;67888;50.228;7.828;2023-03-01T17:44:25;99650.44;;;3.84;46.08
78590;BME280;67888;50.228;7.828;2023-03-01T17:49:25;99650.31;;;3.79;45.92
78590;BME280;67888;50.228;7.828;2023-03-01T17:54:26;99645.88;;;3.54;46.58
78590;BME280;67888;50.228;7.828;2023-03-01T17:59:27;99644.09;;;3.48;45.78
78590;BME280;67888;50.228;7.828;2023-03-01T18:04:30;99645.28;;;3.46;46.02
78590;BME280;67888;50.228;7.828;2023-03-01T18:09:31;99652.22;;;3.27;46.80
78590;BME280;67888;50.228;7.828;2023-03-01T18:14:32;99656.47;;;3.15;46.80
78590;BME280;67888;50.228;7.828;2023-03-01T18:19:33;99649.88;;;3.12;46.14
78590;BME280;67888;50.228;7.828;2023-03-01T18:24:35;99661.88;;;3.13;45.66
78590;BME280;67888;50.228;7.828;2023-03-01T18:29:36;99667.13;;;2.94;45.13
78590;BME280;67888;50.228;7.828;2023-03-01T18:34:37;99652.75;;;2.91;45.85
78590;BME280;67888;50.228;7.828;2023-03-01T18:39:38;99655.16;;;2.86;45.89
78590;BME280;67888;50.228;7.828;2023-03-01T18:44:40;99651.16;;;2.83;45.24
78590;BME280;67888;50.228;7.828;2023-03-01T18:49:41;99649.59;;;2.69;45.92
78590;BME280;67888;50.228;7.828;2023-03-01T18:54:41;99643.25;;;2.59;46.93
78590;BME280;67888;50.228;7.828;2023-03-01T18:59:42;99633.84;;;2.58;46.23
78590;BME280;67888;50.228;7.828;2023-03-01T19:04:42;99624.72;;;2.29;47.67
78590;BME280;67888;50.228;7.828;2023-03-01T19:09:43;99623.91;;;2.28;47.21
78590;BME280;67888;50.228;7.828;2023-03-01T19:14:43;99617.75;;;1.96;49.56
78590;BME280;67888;50.228;7.828;2023-03-01T19:19:44;99615.56;;;2.13;47.70
78590;BME280;67888;50.228;7.828;2023-03-01T19:24:45;99612.34;;;2.04;47.18
78590;BME280;67888;50.228;7.828;2023-03-01T19:29:45;99611.34;;;2.19;46.92
78590;BME280;67888;50.228;7.828;2023-03-01T19:34:46;99617.13;;;2.34;47.27
78590;BME280;67888;50.228;7.828;2023-03-01T19:39:46;99631.53;;;2.10;47.87
78590;BME280;67888;50.228;7.828;2023-03-01T19:44:47;99630.94;;;2.08;47.83
78590;BME280;67888;50.228;7.828;2023-03-01T19:49:48;99631.94;;;2.13;47.99
78590;BME280;67888;50.228;7.828;2023-03-01T19:54:48;99637.50;;;2.04;49.32
78590;BME280;67888;50.228;7.828;2023-03-01T19:59:49;99625.75;;;2.01;48.66
78590;BME280;67888;50.228;7.828;2023-03-01T20:04:49;99625.75;;;2.08;48.41
78590;BME280;67888;50.228;7.828;2023-03-01T20:09:50;99634.13;;;1.97;49.47
78590;BME280;67888;50.228;7.828;2023-03-01T20:14:50;99636.50;;;1.92;49.68
78590;BME280;67888;50.228;7.828;2023-03-01T20:19:54;99643.72;;;1.90;49.23
78590;BME280;67888;50.228;7.828;2023-03-01T20:24:54;99648.69;;;1.85;50.13
78590;BME280;67888;50.228;7.828;2023-03-01T20:29:55;99641.31;;;1.75;50.44
78590;BME280;67888;50.228;7.828;2023-03-01T20:34:55;99646.25;;;1.57;50.62
78590;BME280;67888;50.228;7.828;2023-03-01T20:39:56;99635.91;;;1.50;51.39
78590;BME280;67888;50.228;7.828;2023-03-01T20:44:56;99637.50;;;1.58;51.08
78590;BME280;67888;50.228;7.828;2023-03-01T20:49:57;99642.47;;;1.46;50.95
78590;BME280;67888;50.228;7.828;2023-03-01T20:55:00;99649.44;;;1.39;52.03
78590;BME280;67888;50.228;7.828;2023-03-01T21:00:01;99643.84;;;1.42;52.33
78590;BME280;67888;50.228;7.828;2023-03-01T21:05:03;99641.81;;;1.31;52.40
78590;BME280;67888;50.228;7.828;2023-03-01T21:10:04;99643.38;;;1.19;53.48
78590;BME280;67888;50.228;7.828;2023-03-01T21:15:05;99653.34;;;1.22;53.51
78590;BME280;67888;50.228;7.828;2023-03-01T21:20:07;99652.13;;;1.18;53.75
78590;BME280;67888;50.228;7.828;2023-03-01T21:25:08;99643.19;;;1.14;53.88
78590;BME280;67888;50.228;7.828;2023-03-01T21:30:09;99645.97;;;1.12;54.45
78590;BME280;67888;50.228;7.828;2023-03-01T21:35:10;99636.72;;;1.03;54.79
78590;BME280;67888;50.228;7.828;2023-03-01T21:40:11;99624.75;;;0.95;55.49
78590;BME280;67888;50.228;7.828;2023-03-01T21:45:12;99618.75;;;0.88;55.79
78590;BME280;67888;50.228;7.828;2023-03-01T21:50:13;99613.13;;;0.78;56.27
78590;BME280;67888;50.228;7.828;2023-03-01T21:55:14;99615.88;;;0.70;56.40
78590;BME280;67888;50.228;7.828;2023-03-01T22:00:15;99618.03;;;0.66;56.97
78590;BME280;67888;50.228;7.828;2023-03-01T22:05:17;99611.84;;;0.61;57.21
78590;BME280;67888;50.228;7.828;2023-03-01T22:10:18;99611.25;;;0.59;57.23
78590;BME280;67888;50.228;7.828;2023-03-01T22:15:26;99616.56;;;0.51;57.70
78590;BME280;67888;50.228;7.828;2023-03-01T22:20:27;99611.56;;;0.43;57.26
78590;BME280;67888;50.228;7.828;2023-03-01T22:25:28;99615.50;;;0.39;58.25
78590;BME280;67888;50.228;7.828;2023-03-01T22:30:28;99617.09;;;0.40;57.30
78590;BME280;67888;50.228;7.828;2023-03-01T22:35:29;99617.34;;;0.45;57.14
78590;BME280;67888;50.228;7.828;2023-03-01T22:40:30;99607.94;;;0.37;57.22
78590;BME280;67888;50.228;7.828;2023-03-01T22:45:31;99609.75;;;0.37;57.74
78590;BME280;67888;50.228;7.828;2023-03-01T22:50:31;99611.72;;;0.34;57.79
78590;BME280;67888;50.228;7.828;2023-03-01T22:55:32;99613.88;;;0.31;57.84
78590;BME280;67888;50.228;7.828;2023-03-01T23:00:32;99620.00;;;0.23;58.33
78590;BME280;67888;50.228;7.828;2023-03-01T23:05:33;99617.00;;;0.26;57.60
78590;BME280;67888;50.228;7.828;2023-03-01T23:10:38;99614.22;;;0.21;58.87
78590;BME280;67888;50.228;7.828;2023-03-01T23:15:39;99608.06;;;0.22;58.58
78590;BME280;67888;50.228;7.828;2023-03-01T23:20:44;99606.56;;;0.13;59.22
78590;BME280;67888;50.228;7.828;2023-03-01T23:25:55;99606.38;;;0.08;59.61
78590;BME280;67888;50.228;7.828;2023-03-01T23:31:02;99597.63;;;0.09;59.57
78590;BME280;67888;50.228;7.828;2023-03-01T23:36:14;99601.19;;;0.08;59.52
78590;BME280;67888;50.228;7.828;2023-03-01T23:41:17;99597.53;;;-0.04;59.93
78590;BME280;67888;50.228;7.828;2023-03-01T23:46:20;99585.94;;;-0.08;60.20
78590;BME280;67888;50.228;7.828;2023-03-01T23:51:21;99582.13;;;-0.12;60.20
78590;BME280;67888;50.228;7.828;2023-03-01T23:56:28;99583.50;;;-0.16;60.30
